Time;durP1;ratioP1;P1;durP2;ratioP2;P2;SDS_P1;SDS_P2;PMS_P1;PMS_P2;Temp;Humidity;BMP_temperature;BMP_pressure;BME280_temperature;BME280_humidity;BME280_pressure;Samples;Min_cycle;Max_cycle;Signal;HPM_P1;HPM_P2
2021/03/25 00:02:17;;;;;;;6.30;3.75;;;;;;;;;;5056246;28;20045;-79
2021/03/25 00:04:43;;;;;;;7.43;4.07;;;;;;;;;;5055877;28;20052;-78
2021/03/25 00:07:10;;;;;;;8.38;4.00;;;;;;;;;;5044833;28;20119;-80
2021/03/25 00:09:38;;;;;;;7.00;4.10;;;;;;;;;;5035911;28;20049;-77
2021/03/25 00:12:05;;;;;;;6.50;3.90;;;;;;;;;;5036065;28;20049;-78
2021/03/25 00:14:32;;;;;;;7.13;3.83;;;;;;;;;;5035722;28;20077;-78
2021/03/25 00:16:58;;;;;;;8.40;3.50;;;;;;;;;;5040436;28;20041;-79
2021/03/25 00:19:24;;;;;;;6.10;3.80;;;;;;;;;;5046669;28;20045;-79
2021/03/25 00:21:50;;;;;;;10.98;4.68;;;;;;;;;;5049787;28;20053;-79
2021/03/25 00:24:19;;;;;;;6.50;3.35;;;;;;;;;;5054629;28;20053;-79
2021/03/25 00:26:45;;;;;;;8.00;3.60;;;;;;;;;;5053437;28;20042;-80
2021/03/25 00:29:11;;;;;;;9.32;4.15;;;;;;;;;;5055836;28;20111;-82
2021/03/25 00:31:37;;;;;;;6.57;3.58;;;;;;;;;;5055602;28;20505;-81
2021/03/25 00:34:04;;;;;;;7.20;4.43;;;;;;;;;;5056910;28;20049;-79
2021/03/25 00:36:30;;;;;;;7.13;3.80;;;;;;;;;;5042457;28;20041;-79
2021/03/25 00:38:58;;;;;;;6.65;4.00;;;;;;;;;;5047385;28;20049;-78
2021/03/25 00:41:25;;;;;;;7.45;3.83;;;;;;;;;;5049343;28;20037;-79
2021/03/25 00:43:51;;;;;;;8.50;4.30;;;;;;;;;;5048857;28;20041;-79
2021/03/25 00:46:17;;;;;;;6.93;3.90;;;;;;;;;;5048990;28;20083;-79
2021/03/25 00:48:43;;;;;;;9.50;5.07;;;;;;;;;;5046902;28;20045;-78
2021/03/25 00:51:10;;;;;;;11.07;5.00;;;;;;;;;;5056789;28;20050;-79
2021/03/25 00:53:39;;;;;;;6.90;4.07;;;;;;;;;;5051192;28;20417;-81
2021/03/25 00:56:07;;;;;;;6.65;4.07;;;;;;;;;;5040879;28;20060;-79
2021/03/25 00:58:40;;;;;;;8.25;4.53;;;;;;;;;;5047667;28;20120;-78
2021/03/25 01:01:08;;;;;;;8.25;4.78;;;;;;;;;;5052818;28;20084;-81
2021/03/25 01:03:34;;;;;;;9.27;4.63;;;;;;;;;;5043944;28;20057;-80
2021/03/25 01:06:00;;;;;;;7.22;4.35;;;;;;;;;;5047109;28;20041;-82
2021/03/25 01:08:26;;;;;;;13.18;5.45;;;;;;;;;;5049131;28;20045;-80
2021/03/25 01:10:54;;;;;;;8.18;4.60;;;;;;;;;;5059413;28;20041;-81
2021/03/25 01:13:23;;;;;;;8.15;4.43;;;;;;;;;;5059748;28;20049;-79
2021/03/25 01:15:50;;;;;;;12.73;5.20;;;;;;;;;;5058666;28;20053;-79
2021/03/25 01:18:18;;;;;;;7.97;4.38;;;;;;;;;;5052328;28;20053;-80
2021/03/25 01:20:45;;;;;;;7.43;3.70;;;;;;;;;;5053411;28;20520;-79
2021/03/25 01:23:12;;;;;;;6.47;3.40;;;;;;;;;;5042802;28;20041;-79
2021/03/25 01:25:39;;;;;;;11.43;4.60;;;;;;;;;;5039442;28;20494;-82
2021/03/25 01:28:07;;;;;;;17.40;5.47;;;;;;;;;;5057369;28;20382;-79
2021/03/25 01:30:34;;;;;;;10.38;5.80;;;;;;;;;;5053663;28;20046;-78
2021/03/25 01:33:05;;;;;;;8.25;4.78;;;;;;;;;;5039554;28;20045;-79
2021/03/25 01:35:31;;;;;;;7.72;4.90;;;;;;;;;;5037697;28;20516;-80
2021/03/25 01:37:57;;;;;;;9.02;4.60;;;;;;;;;;5037623;28;20068;-79
2021/03/25 01:40:26;;;;;;;6.90;4.28;;;;;;;;;;5037470;28;20481;-80
2021/03/25 01:43:06;;;;;;;6.88;4.28;;;;;;;;;;5056596;28;20056;-79
2021/03/25 01:45:38;;;;;;;10.40;4.88;;;;;;;;;;5054833;28;20044;-79
2021/03/25 01:48:06;;;;;;;7.13;4.28;;;;;;;;;;5051301;28;20393;-79
2021/03/25 01:50:32;;;;;;;10.23;4.32;;;;;;;;;;5057484;28;20053;-79
2021/03/25 01:53:09;;;;;;;8.20;4.43;;;;;;;;;;5038325;28;20045;-80
2021/03/25 01:55:45;;;;;;;9.15;5.13;;;;;;;;;;5042946;28;20564;-80
2021/03/25 01:58:26;;;;;;;8.48;4.13;;;;;;;;;;5040654;28;20045;-80
2021/03/25 02:00:56;;;;;;;9.38;4.57;;;;;;;;;;5037452;28;20041;-80
2021/03/25 02:03:41;;;;;;;7.43;4.50;;;;;;;;;;5037712;28;20057;-79
2021/03/25 02:06:15;;;;;;;9.90;4.43;;;;;;;;;;5038545;28;20056;-79
2021/03/25 02:08:50;;;;;;;7.38;4.40;;;;;;;;;;5057672;28;20045;-79
2021/03/25 02:11:22;;;;;;;6.65;4.15;;;;;;;;;;5045965;28;20049;-79
2021/03/25 02:13:54;;;;;;;7.75;4.07;;;;;;;;;;5046259;28;20053;-79
2021/03/25 02:16:23;;;;;;;9.70;5.05;;;;;;;;;;5056276;28;20037;-79
2021/03/25 02:18:54;;;;;;;6.40;4.13;;;;;;;;;;5052365;28;20037;-78
2021/03/25 02:21:51;;;;;;;8.75;4.72;;;;;;;;;;5044938;28;20049;-82
2021/03/25 02:24:43;;;;;;;8.57;4.13;;;;;;;;;;5038056;28;20057;-79
2021/03/25 02:27:22;;;;;;;8.25;4.82;;;;;;;;;;5047238;28;20504;-79
2021/03/25 02:29:56;;;;;;;15.57;6.57;;;;;;;;;;5036879;28;20053;-82
2021/03/25 02:32:26;;;;;;;10.27;5.22;;;;;;;;;;5036619;28;20061;-80
2021/03/25 02:34:54;;;;;;;8.50;4.43;;;;;;;;;;5043749;28;20041;-78
2021/03/25 02:37:23;;;;;;;9.57;4.70;;;;;;;;;;5044959;28;20041;-83
2021/03/25 02:39:54;;;;;;;11.50;5.07;;;;;;;;;;5056073;28;20052;-79
2021/03/25 02:42:25;;;;;;;11.57;5.50;;;;;;;;;;5056262;28;20095;-79
2021/03/25 02:44:54;;;;;;;9.95;4.82;;;;;;;;;;5037426;28;20050;-78
2021/03/25 02:47:20;;;;;;;8.57;4.95;;;;;;;;;;5042731;28;20409;-79
2021/03/25 02:49:51;;;;;;;9.65;4.95;;;;;;;;;;5056065;28;20040;-79
2021/03/25 02:52:22;;;;;;;8.80;4.70;;;;;;;;;;5056005;28;20074;-78
2021/03/25 02:54:48;;;;;;;10.57;5.03;;;;;;;;;;5053931;28;20045;-80
2021/03/25 02:57:19;;;;;;;7.95;4.15;;;;;;;;;;5038730;28;20453;-80
2021/03/25 02:59:47;;;;;;;10.73;5.22;;;;;;;;;;5035895;28;20041;-77
2021/03/25 03:02:17;;;;;;;8.35;4.85;;;;;;;;;;5036839;28;20046;-79
2021/03/25 03:04:45;;;;;;;8.18;4.63;;;;;;;;;;5040194;28;20045;-79
2021/03/25 03:07:14;;;;;;;7.93;4.70;;;;;;;;;;5043666;28;20050;-78
2021/03/25 03:09:43;;;;;;;7.82;4.70;;;;;;;;;;5036009;28;20486;-78
2021/03/25 03:12:13;;;;;;;12.77;5.93;;;;;;;;;;5036060;28;20072;-79
2021/03/25 03:14:41;;;;;;;6.65;4.43;;;;;;;;;;5035604;28;20052;-80
2021/03/25 03:17:11;;;;;;;7.50;4.30;;;;;;;;;;5044760;28;20092;-79
2021/03/25 03:19:42;;;;;;;8.88;4.68;;;;;;;;;;5051420;28;20064;-80
2021/03/25 03:22:09;;;;;;;8.57;4.57;;;;;;;;;;5042588;28;20053;-78
2021/03/25 03:24:36;;;;;;;9.98;4.60;;;;;;;;;;5051760;28;20045;-78
2021/03/25 03:27:07;;;;;;;8.57;5.15;;;;;;;;;;5052487;28;20053;-83
2021/03/25 03:29:34;;;;;;;9.70;4.90;;;;;;;;;;5051891;28;20064;-78
2021/03/25 03:32:08;;;;;;;11.27;5.13;;;;;;;;;;5055971;28;20048;-78
2021/03/25 03:34:36;;;;;;;8.45;4.47;;;;;;;;;;5040389;28;20053;-79
2021/03/25 03:37:08;;;;;;;8.98;4.78;;;;;;;;;;5042705;28;20061;-78
2021/03/25 03:39:35;;;;;;;9.57;5.60;;;;;;;;;;5035818;28;20053;-77
2021/03/25 03:42:09;;;;;;;9.48;5.20;;;;;;;;;;5053230;28;20045;-80
2021/03/25 03:44:39;;;;;;;9.77;5.40;;;;;;;;;;5051044;28;20040;-78
2021/03/25 03:47:07;;;;;;;8.93;4.82;;;;;;;;;;5037144;28;20053;-79
2021/03/25 03:49:36;;;;;;;11.40;4.78;;;;;;;;;;5037377;28;20045;-78
2021/03/25 03:52:05;;;;;;;9.50;4.72;;;;;;;;;;5046694;28;20041;-79
2021/03/25 03:54:31;;;;;;;8.40;4.93;;;;;;;;;;5050119;28;20668;-78
2021/03/25 03:57:02;;;;;;;8.40;4.65;;;;;;;;;;5050450;28;20044;-78
2021/03/25 03:59:31;;;;;;;8.00;4.43;;;;;;;;;;5038401;28;20103;-79
2021/03/25 04:02:01;;;;;;;9.75;5.55;;;;;;;;;;5052550;28;20049;-81
2021/03/25 04:04:30;;;;;;;8.07;4.60;;;;;;;;;;5040042;28;20555;-78
2021/03/25 04:06:58;;;;;;;6.88;4.32;;;;;;;;;;5042588;28;20045;-80
2021/03/25 04:09:31;;;;;;;11.13;5.32;;;;;;;;;;5038209;28;20414;-80
2021/03/25 04:12:01;;;;;;;7.60;4.47;;;;;;;;;;5039243;28;20486;-79
2021/03/25 04:14:31;;;;;;;7.35;4.13;;;;;;;;;;5051768;28;20045;-77
2021/03/25 04:17:00;;;;;;;8.57;4.47;;;;;;;;;;5050759;28;20041;-80
2021/03/25 04:19:32;;;;;;;9.75;5.13;;;;;;;;;;5038233;28;20050;-80
2021/03/25 04:22:03;;;;;;;8.50;4.20;;;;;;;;;;5047419;28;20045;-79
2021/03/25 04:24:33;;;;;;;9.25;4.88;;;;;;;;;;5051174;28;20052;-78
2021/03/25 04:27:04;;;;;;;7.57;4.43;;;;;;;;;;5050798;28;20052;-79
2021/03/25 04:29:34;;;;;;;9.55;4.70;;;;;;;;;;5049093;28;20416;-80
2021/03/25 04:32:01;;;;;;;7.65;4.70;;;;;;;;;;5059040;28;20045;-80
2021/03/25 04:34:27;;;;;;;11.95;5.18;;;;;;;;;;5058561;28;20053;-78
2021/03/25 04:36:54;;;;;;;9.00;4.35;;;;;;;;;;5056429;28;20108;-80
2021/03/25 04:39:21;;;;;;;8.05;4.28;;;;;;;;;;5058466;28;20041;-81
2021/03/25 04:41:48;;;;;;;8.60;4.68;;;;;;;;;;5043280;28;20112;-79
2021/03/25 04:44:25;;;;;;;11.00;5.60;;;;;;;;;;5055950;28;20048;-78
2021/03/25 04:46:54;;;;;;;8.48;4.38;;;;;;;;;;5052719;28;20045;-79
2021/03/25 04:49:26;;;;;;;10.70;4.90;;;;;;;;;;5057700;28;20041;-79
2021/03/25 04:51:58;;;;;;;10.38;4.55;;;;;;;;;;5038638;28;20108;-78
2021/03/25 04:54:28;;;;;;;9.43;4.30;;;;;;;;;;5049558;28;20080;-79
2021/03/25 04:56:59;;;;;;;9.73;4.82;;;;;;;;;;5055031;28;20037;-80
2021/03/25 04:59:26;;;;;;;10.45;4.47;;;;;;;;;;5049634;28;20057;-79
2021/03/25 05:01:54;;;;;;;8.63;4.22;;;;;;;;;;5044175;28;20155;-79
2021/03/25 05:04:19;;;;;;;6.95;4.38;;;;;;;;;;5047958;28;20045;-78
2021/03/25 05:06:55;;;;;;;8.77;4.38;;;;;;;;;;5046135;28;20056;-78
2021/03/25 05:09:22;;;;;;;8.55;4.00;;;;;;;;;;5035831;28;20052;-82
2021/03/25 05:11:49;;;;;;;7.93;4.45;;;;;;;;;;5049981;28;20052;-78
2021/03/25 05:14:18;;;;;;;8.90;4.68;;;;;;;;;;5046951;28;20072;-78
2021/03/25 05:16:49;;;;;;;9.68;5.20;;;;;;;;;;5043859;28;20071;-78
2021/03/25 05:19:25;;;;;;;9.00;4.50;;;;;;;;;;5044142;28;20060;-78
2021/03/25 05:21:58;;;;;;;7.60;4.87;;;;;;;;;;5040608;28;20041;-79
2021/03/25 05:24:38;;;;;;;9.40;5.25;;;;;;;;;;5044512;28;20407;-78
2021/03/25 05:27:08;;;;;;;11.82;4.78;;;;;;;;;;5046213;28;20486;-81
2021/03/25 05:29:34;;;;;;;6.18;3.72;;;;;;;;;;5037459;28;20056;-79
2021/03/25 05:32:01;;;;;;;6.93;4.13;;;;;;;;;;5037640;28;20045;-78
2021/03/25 05:34:28;;;;;;;10.68;4.60;;;;;;;;;;5041123;28;20056;-82
2021/03/25 05:36:56;;;;;;;6.60;3.70;;;;;;;;;;5047237;28;20048;-79
2021/03/25 05:39:23;;;;;;;8.52;4.68;;;;;;;;;;5058243;28;20052;-80
2021/03/25 05:41:53;;;;;;;8.88;4.18;;;;;;;;;;5054245;28;20064;-79
2021/03/25 05:45:06;;;;;;;9.43;3.63;;;;;;;;;;5053082;28;20045;-81
2021/03/25 05:48:00;;;;;;;9.77;5.10;;;;;;;;;;5009468;28;20041;-80
2021/03/25 05:50:33;;;;;;;9.65;5.43;;;;;;;;;;5032709;28;20068;-81
2021/03/25 05:53:11;;;;;;;11.93;7.20;;;;;;;;;;5046402;28;20485;-81
2021/03/25 05:55:53;;;;;;;19.70;11.27;;;;;;;;;;5057531;28;20639;-81
2021/03/25 05:58:31;;;;;;;32.63;15.95;;;;;;;;;;5046295;28;20052;-80
2021/03/25 06:01:07;;;;;;;20.60;10.68;;;;;;;;;;5049232;28;20064;-80
2021/03/25 06:03:35;;;;;;;15.75;8.25;;;;;;;;;;5046168;28;20061;-81
2021/03/25 06:06:01;;;;;;;11.88;6.53;;;;;;;;;;5037995;28;20050;-82
2021/03/25 06:08:46;;;;;;;8.32;5.13;;;;;;;;;;5058141;28;20061;-80
2021/03/25 06:11:22;;;;;;;10.38;5.93;;;;;;;;;;5050048;28;20059;-81
2021/03/25 06:14:01;;;;;;;10.57;6.32;;;;;;;;;;5057413;28;20053;-80
2021/03/25 06:16:58;;;;;;;11.63;6.97;;;;;;;;;;5045243;28;20041;-80
2021/03/25 06:19:44;;;;;;;12.10;6.45;;;;;;;;;;5043656;28;20046;-80
2021/03/25 06:22:15;;;;;;;10.55;5.32;;;;;;;;;;5050936;28;20049;-81
2021/03/25 06:25:23;;;;;;;11.50;5.05;;;;;;;;;;5046298;28;20164;-81
2021/03/25 06:28:02;;;;;;;7.25;3.90;;;;;;;;;;5041264;28;20045;-80
2021/03/25 06:30:31;;;;;;;7.93;4.93;;;;;;;;;;5049406;28;20055;-80
2021/03/25 06:32:59;;;;;;;9.32;4.28;;;;;;;;;;5044352;28;20044;-80
2021/03/25 06:35:30;;;;;;;7.18;3.67;;;;;;;;;;5054206;28;20397;-78
2021/03/25 06:38:05;;;;;;;10.80;4.30;;;;;;;;;;5050661;28;20053;-79
2021/03/25 06:40:36;;;;;;;8.20;3.97;;;;;;;;;;5051254;28;20053;-81
2021/03/25 06:43:07;;;;;;;5.53;3.47;;;;;;;;;;5050931;28;20045;-79
2021/03/25 06:45:36;;;;;;;6.80;3.30;;;;;;;;;;5046023;28;20037;-80
2021/03/25 06:48:04;;;;;;;8.02;3.72;;;;;;;;;;5041441;28;20049;-80
2021/03/25 06:50:34;;;;;;;9.55;4.93;;;;;;;;;;5038729;28;20390;-78
2021/03/25 06:53:12;;;;;;;7.05;3.70;;;;;;;;;;5054390;28;20498;-79
2021/03/25 06:55:38;;;;;;;7.68;3.75;;;;;;;;;;5056992;28;20052;-82
2021/03/25 06:58:06;;;;;;;6.95;3.67;;;;;;;;;;5039551;28;20050;-79
2021/03/25 07:00:35;;;;;;;9.15;4.47;;;;;;;;;;5050721;28;20513;-79
2021/03/25 07:03:04;;;;;;;8.07;4.00;;;;;;;;;;5037711;28;20099;-79
2021/03/25 07:05:33;;;;;;;16.08;4.90;;;;;;;;;;5041705;28;20046;-79
2021/03/25 07:08:03;;;;;;;8.98;4.95;;;;;;;;;;5050797;28;20123;-79
2021/03/25 07:10:29;;;;;;;11.80;5.90;;;;;;;;;;5058055;28;20041;-80
2021/03/25 07:13:04;;;;;;;9.68;5.25;;;;;;;;;;5057284;28;20131;-80
2021/03/25 07:15:31;;;;;;;19.73;6.57;;;;;;;;;;5057713;28;20049;-79
2021/03/25 07:17:57;;;;;;;13.05;6.28;;;;;;;;;;5040609;28;20562;-79
2021/03/25 07:20:26;;;;;;;11.98;6.07;;;;;;;;;;5040371;28;20045;-79
2021/03/25 07:23:03;;;;;;;10.93;5.43;;;;;;;;;;5048828;28;20045;-82
2021/03/25 07:25:31;;;;;;;9.50;5.30;;;;;;;;;;5046462;28;20047;-79
2021/03/25 07:27:57;;;;;;;9.30;5.40;;;;;;;;;;5047937;28;20064;-79
2021/03/25 07:30:25;;;;;;;8.77;5.65;;;;;;;;;;5057868;28;20162;-80
2021/03/25 07:32:53;;;;;;;9.07;4.35;;;;;;;;;;5057480;28;20119;-80
2021/03/25 07:35:27;;;;;;;9.23;5.22;;;;;;;;;;5057662;28;20056;-79
2021/03/25 07:37:54;;;;;;;8.50;5.05;;;;;;;;;;5050430;28;20048;-79
2021/03/25 07:40:28;;;;;;;9.07;4.50;;;;;;;;;;5058784;28;20045;-79
2021/03/25 07:42:56;;;;;;;13.98;6.03;;;;;;;;;;5045495;28;20045;-80
2021/03/25 07:45:25;;;;;;;12.15;4.80;;;;;;;;;;5043459;28;20094;-78
2021/03/25 07:47:53;;;;;;;9.85;4.47;;;;;;;;;;5047990;28;20057;-79
2021/03/25 07:50:25;;;;;;;13.05;5.07;;;;;;;;;;5053376;28;20056;-78
2021/03/25 07:52:52;;;;;;;9.60;5.00;;;;;;;;;;5044980;28;20045;-80
2021/03/25 07:55:27;;;;;;;11.13;5.60;;;;;;;;;;5038649;28;20045;-78
2021/03/25 07:57:54;;;;;;;9.13;4.82;;;;;;;;;;5039584;28;20053;-78
2021/03/25 08:00:30;;;;;;;6.72;4.00;;;;;;;;;;5057235;28;20187;-80
2021/03/25 08:03:10;;;;;;;9.00;4.22;;;;;;;;;;5049296;28;20053;-78
2021/03/25 08:05:36;;;;;;;7.47;4.38;;;;;;;;;;5040808;28;20045;-79
2021/03/25 08:08:05;;;;;;;8.23;4.40;;;;;;;;;;5042874;28;20045;-81
2021/03/25 08:10:36;;;;;;;7.30;3.78;;;;;;;;;;5040592;28;20045;-79
2021/03/25 08:13:04;;;;;;;8.55;4.32;;;;;;;;;;5040389;28;20041;-78
2021/03/25 08:15:35;;;;;;;9.50;4.13;;;;;;;;;;5057564;28;20041;-81
2021/03/25 08:18:12;;;;;;;6.45;4.10;;;;;;;;;;5043048;28;20041;-79
2021/03/25 08:20:42;;;;;;;10.40;4.35;;;;;;;;;;5040913;28;20050;-79
2021/03/25 08:23:22;;;;;;;7.30;3.80;;;;;;;;;;5040415;28;20425;-81
2021/03/25 08:25:51;;;;;;;9.80;4.28;;;;;;;;;;5048408;28;20053;-80
2021/03/25 08:28:25;;;;;;;7.72;5.18;;;;;;;;;;5049083;28;20049;-79
2021/03/25 08:31:11;;;;;;;12.80;4.75;;;;;;;;;;5041742;28;20056;-81
2021/03/25 08:33:56;;;;;;;8.15;4.68;;;;;;;;;;5022563;28;20050;-78
2021/03/25 08:36:23;;;;;;;9.77;5.47;;;;;;;;;;5041957;28;20037;-81
2021/03/25 08:39:02;;;;;;;8.52;4.30;;;;;;;;;;5039865;28;20045;-81
2021/03/25 08:41:32;;;;;;;8.32;4.85;;;;;;;;;;5039819;28;20180;-79
2021/03/25 08:44:02;;;;;;;9.88;5.45;;;;;;;;;;5039850;28;20052;-81
2021/03/25 08:46:32;;;;;;;10.73;5.57;;;;;;;;;;5041245;28;20049;-80
2021/03/25 08:48:59;;;;;;;9.50;5.68;;;;;;;;;;5038406;28;20049;-78
2021/03/25 08:51:28;;;;;;;11.38;5.38;;;;;;;;;;5036376;28;20453;-80
2021/03/25 08:53:57;;;;;;;8.85;5.20;;;;;;;;;;5038445;28;20053;-78
2021/03/25 08:56:32;;;;;;;8.68;4.78;;;;;;;;;;5039065;28;20046;-79
2021/03/25 08:59:00;;;;;;;9.98;5.18;;;;;;;;;;5058099;28;20044;-78
2021/03/25 09:01:29;;;;;;;9.88;5.65;;;;;;;;;;5057997;28;20064;-80
2021/03/25 09:03:57;;;;;;;10.32;5.18;;;;;;;;;;5057545;28;20041;-78
2021/03/25 09:06:25;;;;;;;8.75;4.85;;;;;;;;;;5054553;28;20052;-77
2021/03/25 09:08:57;;;;;;;9.77;6.30;;;;;;;;;;5039070;28;20041;-78
2021/03/25 09:11:23;;;;;;;8.57;4.75;;;;;;;;;;5039373;28;20049;-78
2021/03/25 09:13:51;;;;;;;11.90;5.75;;;;;;;;;;5038609;28;20053;-78
2021/03/25 09:16:22;;;;;;;9.05;5.95;;;;;;;;;;5039907;28;20045;-77
2021/03/25 09:18:49;;;;;;;8.98;5.53;;;;;;;;;;5038422;28;20057;-78
2021/03/25 09:21:18;;;;;;;9.80;6.05;;;;;;;;;;5038284;28;20053;-78
2021/03/25 09:24:12;;;;;;;10.23;6.43;;;;;;;;;;5038486;28;20068;-79
2021/03/25 09:26:56;;;;;;;8.45;5.85;;;;;;;;;;5045427;28;20497;-79
2021/03/25 09:29:25;;;;;;;8.90;5.90;;;;;;;;;;5049302;28;20045;-78
2021/03/25 09:32:32;;;;;;;11.32;5.90;;;;;;;;;;5058876;28;20066;-78
2021/03/25 09:34:58;;;;;;;10.60;6.40;;;;;;;;;;5058486;28;20103;-78
2021/03/25 09:37:25;;;;;;;10.38;6.00;;;;;;;;;;5054103;28;20053;-78
2021/03/25 09:40:29;;;;;;;8.32;5.60;;;;;;;;;;5058931;28;20049;-77
2021/03/25 09:43:19;;;;;;;11.55;5.75;;;;;;;;;;5058278;28;20052;-78
2021/03/25 09:45:46;;;;;;;10.07;6.38;;;;;;;;;;5057228;28;20045;-81
2021/03/25 09:48:20;;;;;;;10.85;6.43;;;;;;;;;;5037887;28;20077;-77
2021/03/25 09:51:01;;;;;;;9.40;5.85;;;;;;;;;;5037641;28;20048;-80
2021/03/25 09:53:27;;;;;;;8.25;5.70;;;;;;;;;;5037532;28;20060;-80
2021/03/25 09:56:03;;;;;;;9.32;6.13;;;;;;;;;;5037653;28;20069;-78
2021/03/25 09:58:41;;;;;;;9.63;5.22;;;;;;;;;;5036880;28;20045;-78
2021/03/25 10:01:08;;;;;;;12.52;6.95;;;;;;;;;;5036768;28;20050;-78
2021/03/25 10:04:27;;;;;;;9.38;5.97;;;;;;;;;;5038023;28;20048;-79
2021/03/25 10:06:58;;;;;;;11.15;7.18;;;;;;;;;;5038749;28;20124;-80
2021/03/25 10:09:53;;;;;;;9.93;6.03;;;;;;;;;;5036916;28;20457;-78
2021/03/25 10:12:46;;;;;;;9.23;5.72;;;;;;;;;;5037217;28;20045;-79
2021/03/25 10:15:51;;;;;;;10.25;6.05;;;;;;;;;;5036788;28;20049;-78
2021/03/25 10:18:56;;;;;;;9.65;5.78;;;;;;;;;;5056708;28;20052;-79
2021/03/25 10:21:53;;;;;;;10.10;6.05;;;;;;;;;;5056797;28;20084;-79
2021/03/25 10:24:23;;;;;;;8.85;5.95;;;;;;;;;;5022541;28;20067;-80
2021/03/25 10:26:49;;;;;;;8.95;5.70;;;;;;;;;;5046141;28;20490;-79
2021/03/25 10:29:18;;;;;;;9.30;6.00;;;;;;;;;;5044638;28;20060;-80
2021/03/25 10:31:47;;;;;;;9.75;6.30;;;;;;;;;;5051140;28;20103;-78
2021/03/25 10:34:18;;;;;;;9.85;6.55;;;;;;;;;;5056880;28;20055;-81
2021/03/25 10:36:48;;;;;;;10.13;5.57;;;;;;;;;;5048807;28;20042;-78
2021/03/25 10:39:20;;;;;;;8.82;5.65;;;;;;;;;;5036070;28;20045;-78
2021/03/25 10:41:46;;;;;;;8.57;5.55;;;;;;;;;;5035668;28;20049;-79
2021/03/25 10:44:34;;;;;;;7.00;5.20;;;;;;;;;;5036022;28;20100;-78
2021/03/25 10:47:04;;;;;;;8.25;5.72;;;;;;;;;;5042343;28;20051;-78
2021/03/25 10:49:39;;;;;;;11.93;5.97;;;;;;;;;;5056084;28;20049;-79
2021/03/25 10:52:05;;;;;;;16.15;6.03;;;;;;;;;;5056688;28;20459;-78
2021/03/25 10:54:37;;;;;;;8.68;4.93;;;;;;;;;;5056795;28;20482;-80
2021/03/25 10:57:11;;;;;;;8.40;5.25;;;;;;;;;;5053578;28;20494;-79
2021/03/25 10:59:49;;;;;;;9.32;6.22;;;;;;;;;;5055012;28;20044;-81
2021/03/25 11:02:23;;;;;;;10.32;5.90;;;;;;;;;;5055739;28;20044;-78
2021/03/25 11:05:04;;;;;;;10.75;5.38;;;;;;;;;;5045274;28;20056;-79
2021/03/25 11:07:38;;;;;;;7.43;5.20;;;;;;;;;;5043510;28;20057;-79
2021/03/25 11:10:13;;;;;;;7.22;4.93;;;;;;;;;;5038053;28;20049;-79
2021/03/25 11:12:39;;;;;;;7.88;5.22;;;;;;;;;;5049561;28;20382;-80
2021/03/25 11:15:15;;;;;;;7.15;4.70;;;;;;;;;;5039279;28;20059;-78
2021/03/25 11:17:44;;;;;;;7.53;5.35;;;;;;;;;;5045810;28;20486;-80
2021/03/25 11:20:15;;;;;;;7.45;4.88;;;;;;;;;;5039198;28;20057;-77
2021/03/25 11:22:41;;;;;;;8.05;4.65;;;;;;;;;;5049549;28;20068;-77
2021/03/25 11:25:14;;;;;;;7.47;4.30;;;;;;;;;;5044365;28;20387;-78
2021/03/25 11:27:40;;;;;;;8.27;4.90;;;;;;;;;;5046009;28;20049;-78
2021/03/25 11:30:09;;;;;;;6.82;4.68;;;;;;;;;;5050268;28;20520;-78
2021/03/25 11:32:37;;;;;;;7.93;4.75;;;;;;;;;;5040184;28;20096;-80
2021/03/25 11:35:22;;;;;;;9.52;4.93;;;;;;;;;;5044107;28;20414;-78
2021/03/25 11:37:49;;;;;;;5.88;4.10;;;;;;;;;;5039660;28;20071;-79
2021/03/25 11:40:19;;;;;;;8.50;4.88;;;;;;;;;;5037006;28;20048;-78
2021/03/25 11:42:47;;;;;;;7.22;4.88;;;;;;;;;;5040942;28;20045;-80
2021/03/25 11:45:32;;;;;;;7.13;4.50;;;;;;;;;;5050219;28;20473;-78
2021/03/25 11:47:58;;;;;;;6.07;3.50;;;;;;;;;;5039380;28;20478;-78
2021/03/25 11:50:36;;;;;;;7.63;4.60;;;;;;;;;;5039122;28;20049;-77
2021/03/25 11:53:05;;;;;;;7.20;4.05;;;;;;;;;;5044856;28;20498;-78
2021/03/25 11:55:36;;;;;;;6.20;4.07;;;;;;;;;;5054696;28;20049;-79
2021/03/25 11:58:06;;;;;;;6.53;3.88;;;;;;;;;;5038663;28;20057;-79
2021/03/25 12:00:32;;;;;;;5.88;3.63;;;;;;;;;;5053343;28;20095;-79
2021/03/25 12:02:58;;;;;;;8.50;4.28;;;;;;;;;;5046800;28;20046;-78
2021/03/25 12:05:40;;;;;;;9.40;4.68;;;;;;;;;;5033766;28;20049;-78
2021/03/25 12:08:21;;;;;;;5.70;4.05;;;;;;;;;;5034413;28;20056;-78
2021/03/25 12:10:56;;;;;;;5.97;4.00;;;;;;;;;;5034125;28;20394;-78
2021/03/25 12:13:23;;;;;;;7.03;4.68;;;;;;;;;;5034004;28;20065;-78
2021/03/25 12:15:49;;;;;;;7.95;4.18;;;;;;;;;;5046772;28;20407;-77
2021/03/25 12:18:21;;;;;;;7.78;4.35;;;;;;;;;;5050242;28;20048;-78
2021/03/25 12:20:47;;;;;;;5.65;4.00;;;;;;;;;;5034668;28;20103;-79
2021/03/25 12:23:16;;;;;;;6.03;4.00;;;;;;;;;;5045732;28;20088;-78
2021/03/25 12:25:43;;;;;;;7.53;4.70;;;;;;;;;;5047418;28;20049;-80
2021/03/25 12:28:11;;;;;;;6.80;4.03;;;;;;;;;;5038767;28;20398;-79
2021/03/25 12:30:37;;;;;;;11.55;4.78;;;;;;;;;;5045322;28;20037;-79
2021/03/25 12:33:04;;;;;;;8.63;5.00;;;;;;;;;;5051288;28;20123;-79
2021/03/25 12:35:29;;;;;;;9.02;5.65;;;;;;;;;;5053864;28;20072;-80
2021/03/25 12:37:56;;;;;;;6.57;4.88;;;;;;;;;;5055721;28;20045;-77
2021/03/25 12:40:23;;;;;;;9.85;5.07;;;;;;;;;;5049782;28;20112;-78
2021/03/25 12:42:50;;;;;;;8.60;4.90;;;;;;;;;;5039193;28;20054;-79
2021/03/25 12:45:33;;;;;;;8.77;4.95;;;;;;;;;;5047769;28;20045;-80
2021/03/25 12:47:59;;;;;;;6.55;4.43;;;;;;;;;;5059379;28;20064;-78
2021/03/25 12:50:26;;;;;;;7.18;4.45;;;;;;;;;;5044805;28;20045;-78
2021/03/25 12:52:52;;;;;;;11.52;5.60;;;;;;;;;;5046757;28;20037;-78
2021/03/25 12:55:18;;;;;;;7.53;4.70;;;;;;;;;;5037747;28;20057;-78
2021/03/25 12:57:44;;;;;;;6.88;4.32;;;;;;;;;;5053868;28;20496;-78
2021/03/25 13:00:20;;;;;;;7.53;4.32;;;;;;;;;;5054870;28;20041;-79
2021/03/25 13:02:47;;;;;;;7.05;4.55;;;;;;;;;;5039781;28;21221;-79
2021/03/25 13:05:14;;;;;;;6.47;4.70;;;;;;;;;;5037554;28;20517;-78
2021/03/25 13:07:40;;;;;;;7.30;5.10;;;;;;;;;;5051310;28;20049;-78
2021/03/25 13:10:06;;;;;;;7.75;4.70;;;;;;;;;;5053903;28;20048;-78
2021/03/25 13:12:32;;;;;;;7.03;4.60;;;;;;;;;;5039773;28;20509;-80
2021/03/25 13:14:58;;;;;;;8.40;4.80;;;;;;;;;;5037449;28;20140;-79
2021/03/25 13:17:24;;;;;;;7.22;4.35;;;;;;;;;;5049921;28;20103;-78
2021/03/25 13:19:51;;;;;;;9.05;4.72;;;;;;;;;;5057822;28;20076;-78
2021/03/25 13:22:17;;;;;;;6.60;4.13;;;;;;;;;;5056721;28;20098;-78
2021/03/25 13:24:43;;;;;;;5.82;3.88;;;;;;;;;;5056820;28;20045;-79
2021/03/25 13:27:09;;;;;;;6.38;4.10;;;;;;;;;;5050210;28;20100;-78
2021/03/25 13:29:35;;;;;;;6.35;4.45;;;;;;;;;;5041912;28;20045;-79
2021/03/25 13:32:01;;;;;;;6.75;4.10;;;;;;;;;;5050600;28;20037;-79
2021/03/25 13:34:27;;;;;;;6.72;4.13;;;;;;;;;;5046796;28;20050;-81
2021/03/25 13:36:56;;;;;;;6.93;4.80;;;;;;;;;;5050859;28;20064;-79
2021/03/25 13:39:22;;;;;;;6.15;3.90;;;;;;;;;;5057862;28;20164;-77
2021/03/25 13:41:48;;;;;;;6.43;4.40;;;;;;;;;;5052244;28;20525;-78
2021/03/25 13:44:14;;;;;;;5.88;4.47;;;;;;;;;;5043358;28;20120;-80
2021/03/25 13:46:40;;;;;;;10.98;4.50;;;;;;;;;;5046464;28;20041;-78
2021/03/25 13:49:07;;;;;;;9.95;4.70;;;;;;;;;;5044670;28;20097;-80
2021/03/25 13:51:33;;;;;;;8.63;4.05;;;;;;;;;;5051633;28;20059;-79
2021/03/25 13:54:00;;;;;;;14.40;4.80;;;;;;;;;;5053916;28;20127;-81
2021/03/25 13:56:26;;;;;;;29.83;6.38;;;;;;;;;;5047480;28;20048;-79
2021/03/25 13:58:52;;;;;;;9.05;5.00;;;;;;;;;;5057546;28;20128;-79
2021/03/25 14:01:18;;;;;;;11.63;5.72;;;;;;;;;;5046913;28;20067;-79
2021/03/25 14:03:44;;;;;;;7.63;5.13;;;;;;;;;;5043011;28;20041;-79
2021/03/25 14:06:10;;;;;;;7.13;4.32;;;;;;;;;;5054498;28;20102;-79
2021/03/25 14:08:37;;;;;;;10.70;6.22;;;;;;;;;;5046659;28;20046;-79
2021/03/25 14:11:04;;;;;;;7.97;4.85;;;;;;;;;;5049677;28;20072;-79
2021/03/25 14:13:30;;;;;;;8.80;5.05;;;;;;;;;;5049521;28;20045;-78
2021/03/25 14:15:56;;;;;;;7.05;4.38;;;;;;;;;;5050734;28;20045;-81
2021/03/25 14:18:26;;;;;;;7.63;4.50;;;;;;;;;;5046001;28;20087;-78
2021/03/25 14:20:53;;;;;;;6.95;4.57;;;;;;;;;;5054159;28;20063;-81
2021/03/25 14:23:22;;;;;;;5.75;4.00;;;;;;;;;;5051526;28;20045;-79
2021/03/25 14:25:49;;;;;;;8.60;4.68;;;;;;;;;;5045992;28;20076;-80
2021/03/25 14:28:18;;;;;;;6.95;4.47;;;;;;;;;;5052958;28;20136;-79
2021/03/25 14:30:44;;;;;;;6.25;3.70;;;;;;;;;;5049499;28;20045;-77
2021/03/25 14:33:11;;;;;;;4.95;3.65;;;;;;;;;;5045443;28;20064;-78
2021/03/25 14:35:39;;;;;;;6.50;4.75;;;;;;;;;;5046763;28;20060;-79
2021/03/25 14:38:07;;;;;;;7.07;4.18;;;;;;;;;;5035102;28;20046;-76
2021/03/25 14:40:33;;;;;;;5.28;3.97;;;;;;;;;;5051228;28;20075;-78
2021/03/25 14:42:59;;;;;;;5.45;3.92;;;;;;;;;;5054003;28;20056;-77
2021/03/25 14:45:29;;;;;;;5.07;3.80;;;;;;;;;;5049124;28;20057;-79
2021/03/25 14:47:55;;;;;;;6.18;3.65;;;;;;;;;;5036598;28;20436;-80
2021/03/25 14:50:22;;;;;;;6.00;4.10;;;;;;;;;;5034005;28;20073;-77
2021/03/25 14:52:48;;;;;;;6.15;4.20;;;;;;;;;;5032778;28;20128;-77
2021/03/25 14:55:16;;;;;;;8.27;5.18;;;;;;;;;;5036113;28;20041;-79
2021/03/25 14:57:42;;;;;;;7.28;4.70;;;;;;;;;;5043268;28;20037;-78
2021/03/25 15:00:11;;;;;;;6.05;3.92;;;;;;;;;;5036368;28;20052;-78
2021/03/25 15:02:37;;;;;;;7.15;4.18;;;;;;;;;;5035136;28;20045;-78
2021/03/25 15:05:05;;;;;;;5.32;3.58;;;;;;;;;;5034673;28;20060;-80